sensor_id;sensor_type;location;lat;lon;timestamp;pressure;altitude;pressure_sealevel;temperature;humidity
84358;BME280;74548;47.712;9.272;2023-12-07T00:01:19;95967.72;;;5.51;74.61
84358;BME280;74548;47.712;9.272;2023-12-07T00:03:44;95969.59;;;5.50;74.17
84358;BME280;74548;47.712;9.272;2023-12-07T00:06:09;95973.31;;;5.49;74.17
84358;BME280;74548;47.712;9.272;2023-12-07T00:08:35;95967.97;;;5.49;74.84
84358;BME280;74548;47.712;9.272;2023-12-07T00:11:00;95969.84;;;5.49;74.20
84358;BME280;74548;47.712;9.272;2023-12-07T00:13:25;95969.59;;;5.50;74.78
84358;BME280;74548;47.712;9.272;2023-12-07T00:15:51;95974.13;;;5.50;74.94
84358;BME280;74548;47.712;9.272;2023-12-07T00:18:16;95984.03;;;5.49;74.10
84358;BME280;74548;47.712;9.272;2023-12-07T00:20:41;95983.22;;;5.49;74.31
84358;BME280;74548;47.712;9.272;2023-12-07T00:23:06;95980.78;;;5.47;74.83
84358;BME280;74548;47.712;9.272;2023-12-07T00:25:32;95990.44;;;5.48;74.29
84358;BME280;74548;47.712;9.272;2023-12-07T00:27:57;95998.47;;;5.48;74.30
84358;BME280;74548;47.712;9.272;2023-12-07T00:30:22;95993.09;;;5.48;75.06
84358;BME280;74548;47.712;9.272;2023-12-07T00:32:48;95994.16;;;5.47;74.42
84358;BME280;74548;47.712;9.272;2023-12-07T00:35:13;95996.63;;;5.49;74.91
84358;BME280;74548;47.712;9.272;2023-12-07T00:37:39;95995.78;;;5.48;74.01
84358;BME280;74548;47.712;9.272;2023-12-07T00:40:05;95992.28;;;5.48;74.91
84358;BME280;74548;47.712;9.272;2023-12-07T00:42:30;95992.56;;;5.46;74.52
84358;BME280;74548;47.712;9.272;2023-12-07T00:44:56;95991.50;;;5.47;74.91
84358;BME280;74548;47.712;9.272;2023-12-07T00:47:22;95988.00;;;5.47;74.72
84358;BME280;74548;47.712;9.272;2023-12-07T00:49:47;95997.91;;;5.46;74.95
84358;BME280;74548;47.712;9.272;2023-12-07T00:52:13;95989.88;;;5.46;74.64
84358;BME280;74548;47.712;9.272;2023-12-07T00:54:39;95995.25;;;5.46;74.83
84358;BME280;74548;47.712;9.272;2023-12-07T00:57:05;95988.00;;;5.47;74.82
84358;BME280;74548;47.712;9.272;2023-12-07T00:59:30;95989.88;;;5.46;74.01
84358;BME280;74548;47.712;9.272;2023-12-07T01:02:04;95989.88;;;5.46;74.41
84358;BME280;74548;47.712;9.272;2023-12-07T01:04:30;95982.34;;;5.43;74.24
84358;BME280;74548;47.712;9.272;2023-12-07T01:06:56;95987.22;;;5.46;74.15
84358;BME280;74548;47.712;9.272;2023-12-07T01:09:21;95983.72;;;5.46;74.80
84358;BME280;74548;47.712;9.272;2023-12-07T01:11:48;95984.75;;;5.45;74.17
84358;BME280;74548;47.712;9.272;2023-12-07T01:14:13;95986.63;;;5.44;74.62
84358;BME280;74548;47.712;9.272;2023-12-07T01:16:39;95990.13;;;5.45;74.40
84358;BME280;74548;47.712;9.272;2023-12-07T01:19:04;95984.75;;;5.45;74.45
84358;BME280;74548;47.712;9.272;2023-12-07T01:21:29;95988.25;;;5.45;74.64
84358;BME280;74548;47.712;9.272;2023-12-07T01:23:55;95990.91;;;5.45;74.82
84358;BME280;74548;47.712;9.272;2023-12-07T01:26:20;95995.47;;;5.45;74.36
84358;BME280;74548;47.712;9.272;2023-12-07T01:28:46;96006.97;;;5.45;74.20
84358;BME280;74548;47.712;9.272;2023-12-07T01:31:11;96008.03;;;5.44;74.03
84358;BME280;74548;47.712;9.272;2023-12-07T01:33:36;96015.00;;;5.45;73.97
84358;BME280;74548;47.712;9.272;2023-12-07T01:36:02;96022.22;;;5.45;74.81
84358;BME280;74548;47.712;9.272;2023-12-07T01:38:27;96014.19;;;5.45;74.13
84358;BME280;74548;47.712;9.272;2023-12-07T01:40:52;96017.94;;;5.44;74.50
84358;BME280;74548;47.712;9.272;2023-12-07T01:43:19;96021.69;;;5.43;73.95
84358;BME280;74548;47.712;9.272;2023-12-07T01:45:46;96024.38;;;5.43;73.98
84358;BME280;74548;47.712;9.272;2023-12-07T01:48:11;96026.78;;;5.44;74.21
84358;BME280;74548;47.712;9.272;2023-12-07T01:50:37;96020.63;;;5.44;74.53
84358;BME280;74548;47.712;9.272;2023-12-07T01:53:03;96025.16;;;5.43;74.82
84358;BME280;74548;47.712;9.272;2023-12-07T01:55:31;96021.69;;;5.43;74.13
84358;BME280;74548;47.712;9.272;2023-12-07T01:57:57;96027.03;;;5.43;74.71
84358;BME280;74548;47.712;9.272;2023-12-07T02:00:22;96024.38;;;5.43;74.06
84358;BME280;74548;47.712;9.272;2023-12-07T02:02:48;96027.84;;;5.43;74.14
84358;BME280;74548;47.712;9.272;2023-12-07T02:05:16;96030.75;;;5.42;74.57
84358;BME280;74548;47.712;9.272;2023-12-07T02:07:41;96028.06;;;5.42;73.86
84358;BME280;74548;47.712;9.272;2023-12-07T02:10:08;96037.16;;;5.41;73.85
84358;BME280;74548;47.712;9.272;2023-12-07T02:12:33;96037.75;;;5.43;74.15
84358;BME280;74548;47.712;9.272;2023-12-07T02:15:01;96029.94;;;5.41;74.25
84358;BME280;74548;47.712;9.272;2023-12-07T02:20:46;96025.66;;;5.40;74.70
84358;BME280;74548;47.712;9.272;2023-12-07T02:23:17;96037.16;;;5.41;74.76
84358;BME280;74548;47.712;9.272;2023-12-07T02:26:08;96024.59;;;5.41;74.24
84358;BME280;74548;47.712;9.272;2023-12-07T02:28:35;96025.66;;;5.40;73.83
84358;BME280;74548;47.712;9.272;2023-12-07T02:31:00;96021.34;;;5.39;74.37
84358;BME280;74548;47.712;9.272;2023-12-07T02:33:26;96025.09;;;5.38;74.84
84358;BME280;74548;47.712;9.272;2023-12-07T02:35:51;96021.34;;;5.39;74.29
84358;BME280;74548;47.712;9.272;2023-12-07T02:38:17;96024.03;;;5.39;74.69
84358;BME280;74548;47.712;9.272;2023-12-07T02:40:44;96029.38;;;5.39;73.94
84358;BME280;74548;47.712;9.272;2023-12-07T02:43:11;96021.34;;;5.39;73.99
84358;BME280;74548;47.712;9.272;2023-12-07T02:45:37;96026.69;;;5.39;74.65
84358;BME280;74548;47.712;9.272;2023-12-07T02:48:02;96027.53;;;5.40;74.29
84358;BME280;74548;47.712;9.272;2023-12-07T02:50:28;96028.56;;;5.39;74.59
84358;BME280;74548;47.712;9.272;2023-12-07T02:52:53;96019.50;;;5.40;74.38
84358;BME280;74548;47.712;9.272;2023-12-07T02:55:21;96026.69;;;5.39;74.38
84358;BME280;74548;47.712;9.272;2023-12-07T02:57:46;96028.56;;;5.39;73.91
84358;BME280;74548;47.712;9.272;2023-12-07T03:00:12;96030.44;;;5.38;74.18
84358;BME280;74548;47.712;9.272;2023-12-07T03:02:39;96030.44;;;5.38;74.69
84358;BME280;74548;47.712;9.272;2023-12-07T03:05:06;96032.31;;;5.38;74.27
84358;BME280;74548;47.712;9.272;2023-12-07T03:07:34;96035.25;;;5.36;74.67
84358;BME280;74548;47.712;9.272;2023-12-07T03:10:00;96034.19;;;5.37;73.93
84358;BME280;74548;47.712;9.272;2023-12-07T03:12:25;96035.25;;;5.36;74.10
84358;BME280;74548;47.712;9.272;2023-12-07T03:14:51;96034.19;;;5.37;73.66
84358;BME280;74548;47.712;9.272;2023-12-07T03:17:16;96030.94;;;5.35;74.06
84358;BME280;74548;47.712;9.272;2023-12-07T03:19:41;96033.38;;;5.37;74.19
84358;BME280;74548;47.712;9.272;2023-12-07T03:22:07;96027.22;;;5.36;74.51
84358;BME280;74548;47.712;9.272;2023-12-07T03:24:34;96026.38;;;5.35;74.09
84358;BME280;74548;47.712;9.272;2023-12-07T03:27:00;96030.13;;;5.34;74.22
84358;BME280;74548;47.712;9.272;2023-12-07T03:29:25;96025.56;;;5.35;73.59
84358;BME280;74548;47.712;9.272;2023-12-07T03:31:51;96034.41;;;5.35;74.57
84358;BME280;74548;47.712;9.272;2023-12-07T03:34:16;96027.44;;;5.34;74.05
84358;BME280;74548;47.712;9.272;2023-12-07T03:36:46;96033.59;;;5.35;74.50
84358;BME280;74548;47.712;9.272;2023-12-07T03:39:11;96033.59;;;5.35;74.14
84358;BME280;74548;47.712;9.272;2023-12-07T03:41:36;96034.41;;;5.35;74.14
84358;BME280;74548;47.712;9.272;2023-12-07T03:44:02;96026.63;;;5.34;73.83
84358;BME280;74548;47.712;9.272;2023-12-07T03:46:27;96022.91;;;5.35;73.88
84358;BME280;74548;47.712;9.272;2023-12-07T03:48:52;96025.56;;;5.35;74.30
84358;BME280;74548;47.712;9.272;2023-12-07T03:51:18;96020.47;;;5.33;74.17
84358;BME280;74548;47.712;9.272;2023-12-07T03:53:43;96023.97;;;5.34;73.65
84358;BME280;74548;47.712;9.272;2023-12-07T03:56:09;96023.97;;;5.34;74.46
84358;BME280;74548;47.712;9.272;2023-12-07T03:58:35;96025.84;;;5.33;73.74
84358;BME280;74548;47.712;9.272;2023-12-07T04:01:00;96023.16;;;5.33;74.02
84358;BME280;74548;47.712;9.272;2023-12-07T04:03:26;96026.63;;;5.34;73.57
84358;BME280;74548;47.712;9.272;2023-12-07T04:05:52;96019.66;;;5.33;73.72
84358;BME280;74548;47.712;9.272;2023-12-07T04:08:18;96023.97;;;5.34;74.36
84358;BME280;74548;47.712;9.272;2023-12-07T04:10:43;96021.50;;;5.32;74.55
84358;BME280;74548;47.712;9.272;2023-12-07T04:13:08;96031.41;;;5.32;74.05
84358;BME280;74548;47.712;9.272;2023-12-07T04:15:34;96030.38;;;5.33;73.74
84358;BME280;74548;47.712;9.272;2023-12-07T04:17:59;96033.06;;;5.33;73.83
84358;BME280;74548;47.712;9.272;2023-12-07T04:20:25;96037.56;;;5.32;73.76
84358;BME280;74548;47.712;9.272;2023-12-07T04:22:50;96034.34;;;5.30;74.02
84358;BME280;74548;47.712;9.272;2023-12-07T04:25:16;96036.75;;;5.32;73.94
84358;BME280;74548;47.712;9.272;2023-12-07T04:27:41;96034.91;;;5.32;74.43
84358;BME280;74548;47.712;9.272;2023-12-07T04:30:07;96036.75;;;5.32;74.60
84358;BME280;74548;47.712;9.272;2023-12-07T04:32:32;96038.63;;;5.31;74.11
84358;BME280;74548;47.712;9.272;2023-12-07T04:34:57;96033.28;;;5.31;74.25
84358;BME280;74548;47.712;9.272;2023-12-07T04:37:23;96029.81;;;5.31;73.53
84358;BME280;74548;47.712;9.272;2023-12-07T04:39:48;96029.81;;;5.31;74.35
84358;BME280;74548;47.712;9.272;2023-12-07T04:42:14;96029.81;;;5.31;74.45
84358;BME280;74548;47.712;9.272;2023-12-07T04:44:39;96018.28;;;5.30;73.83
84358;BME280;74548;47.712;9.272;2023-12-07T04:47:04;96027.13;;;5.31;73.51
84358;BME280;74548;47.712;9.272;2023-12-07T04:49:30;96028.19;;;5.30;74.04
84358;BME280;74548;47.712;9.272;2023-12-07T04:51:55;96038.91;;;5.30;74.29
84358;BME280;74548;47.712;9.272;2023-12-07T04:54:21;96028.09;;;5.25;74.05
84358;BME280;74548;47.712;9.272;2023-12-07T04:56:46;96033.53;;;5.30;73.56
84358;BME280;74548;47.712;9.272;2023-12-07T04:59:11;96029.22;;;5.29;74.24
84358;BME280;74548;47.712;9.272;2023-12-07T05:01:37;96034.56;;;5.29;74.54
84358;BME280;74548;47.712;9.272;2023-12-07T05:04:03;96031.91;;;5.29;73.54
84358;BME280;74548;47.712;9.272;2023-12-07T05:06:29;96033.78;;;5.28;73.53
84358;BME280;74548;47.712;9.272;2023-12-07T05:08:55;96038.31;;;5.28;73.42
84358;BME280;74548;47.712;9.272;2023-12-07T05:11:20;96035.66;;;5.28;73.89
84358;BME280;74548;47.712;9.272;2023-12-07T05:13:45;96035.66;;;5.28;73.72
84358;BME280;74548;47.712;9.272;2023-12-07T05:16:11;96029.47;;;5.27;74.26
84358;BME280;74548;47.712;9.272;2023-12-07T05:18:36;96035.66;;;5.28;73.73
84358;BME280;74548;47.712;9.272;2023-12-07T05:21:01;96032.97;;;5.28;73.34
84358;BME280;74548;47.712;9.272;2023-12-07T05:23:27;96031.34;;;5.27;73.94
84358;BME280;74548;47.712;9.272;2023-12-07T05:25:52;96025.16;;;5.26;73.90
84358;BME280;74548;47.712;9.272;2023-12-07T05:28:19;96027.84;;;5.26;73.74
84358;BME280;74548;47.712;9.272;2023-12-07T05:30:44;96021.69;;;5.26;73.71
84358;BME280;74548;47.712;9.272;2023-12-07T05:33:10;96021.69;;;5.26;73.86
84358;BME280;74548;47.712;9.272;2023-12-07T05:35:35;96027.03;;;5.26;73.80
84358;BME280;74548;47.712;9.272;2023-12-07T05:38:00;96027.28;;;5.24;74.21
84358;BME280;74548;47.712;9.272;2023-12-07T05:40:25;96028.34;;;5.23;73.31
84358;BME280;74548;47.712;9.272;2023-12-07T05:42:51;96032.66;;;5.24;73.39
84358;BME280;74548;47.712;9.272;2023-12-07T05:45:16;96031.03;;;5.23;73.91
84358;BME280;74548;47.712;9.272;2023-12-07T05:47:42;96032.88;;;5.23;74.15
84358;BME280;74548;47.712;9.272;2023-12-07T05:50:07;96041.75;;;5.23;73.77
84358;BME280;74548;47.712;9.272;2023-12-07T05:52:33;96037.41;;;5.22;73.75
84358;BME280;74548;47.712;9.272;2023-12-07T05:54:58;96033.72;;;5.23;74.00
84358;BME280;74548;47.712;9.272;2023-12-07T05:57:24;96037.19;;;5.24;73.69
84358;BME280;74548;47.712;9.272;2023-12-07T05:59:49;96040.09;;;5.22;73.86
84358;BME280;74548;47.712;9.272;2023-12-07T06:02:14;96035.56;;;5.23;73.25
84358;BME280;74548;47.712;9.272;2023-12-07T06:04:40;96037.41;;;5.22;73.96
84358;BME280;74548;47.712;9.272;2023-12-07T06:07:05;96046.25;;;5.23;73.42
84358;BME280;74548;47.712;9.272;2023-12-07T06:09:31;96047.31;;;5.22;73.58
84358;BME280;74548;47.712;9.272;2023-12-07T06:11:56;96050.00;;;5.22;73.61
84358;BME280;74548;47.712;9.272;2023-12-07T06:14:22;96050.78;;;5.22;73.14
84358;BME280;74548;47.712;9.272;2023-12-07T06:16:50;96032.31;;;5.21;73.13
84358;BME280;74548;47.712;9.272;2023-12-07T06:19:15;96040.34;;;5.21;73.25
84358;BME280;74548;47.712;9.272;2023-12-07T06:21:40;96037.69;;;5.21;73.33
84358;BME280;74548;47.712;9.272;2023-12-07T06:24:06;96035.22;;;5.19;73.46
84358;BME280;74548;47.712;9.272;2023-12-07T06:26:35;96033.34;;;5.20;73.33
84358;BME280;74548;47.712;9.272;2023-12-07T06:29:01;96028.84;;;5.20;73.61
84358;BME280;74548;47.712;9.272;2023-12-07T06:31:27;96022.66;;;5.20;73.75
84358;BME280;74548;47.712;9.272;2023-12-07T06:33:52;96029.06;;;5.19;73.15
84358;BME280;74548;47.712;9.272;2023-12-07T06:36:22;96021.03;;;5.19;73.49
84358;BME280;74548;47.712;9.272;2023-12-07T06:38:48;96019.97;;;5.20;73.52
84358;BME280;74548;47.712;9.272;2023-12-07T06:41:14;96030.13;;;5.18;73.65
84358;BME280;74548;47.712;9.272;2023-12-07T06:43:39;96025.81;;;5.17;73.71
84358;BME280;74548;47.712;9.272;2023-12-07T06:46:05;96036.28;;;5.18;73.94
84358;BME280;74548;47.712;9.272;2023-12-07T06:48:31;96030.94;;;5.18;73.15
84358;BME280;74548;47.712;9.272;2023-12-07T06:50:56;96029.34;;;5.17;73.61
84358;BME280;74548;47.712;9.272;2023-12-07T06:53:22;96031.16;;;5.17;73.70
84358;BME280;74548;47.712;9.272;2023-12-07T06:55:47;96038.56;;;5.09;71.25
84358;BME280;74548;47.712;9.272;2023-12-07T06:58:12;96031.09;;;4.95;68.56
84358;BME280;74548;47.712;9.272;2023-12-07T07:00:38;96036.53;;;4.83;70.28
84358;BME280;74548;47.712;9.272;2023-12-07T07:03:03;96039.34;;;4.76;71.60
84358;BME280;74548;47.712;9.272;2023-12-07T07:05:29;96039.03;;;4.73;72.01
84358;BME280;74548;47.712;9.272;2023-12-07T07:07:54;96040.63;;;4.74;72.25
84358;BME280;74548;47.712;9.272;2023-12-07T07:10:20;96040.63;;;4.74;71.95
84358;BME280;74548;47.712;9.272;2023-12-07T07:12:46;96037.72;;;4.75;70.96
84358;BME280;74548;47.712;9.272;2023-12-07T07:15:11;96047.13;;;4.78;70.72
84358;BME280;74548;47.712;9.272;2023-12-07T07:17:36;96043.38;;;4.79;71.10
84358;BME280;74548;47.712;9.272;2023-12-07T07:20:02;96041.28;;;4.81;71.41
84358;BME280;74548;47.712;9.272;2023-12-07T07:22:27;96039.19;;;4.83;71.32
84358;BME280;74548;47.712;9.272;2023-12-07T07:24:53;96042.69;;;4.83;71.41
84358;BME280;74548;47.712;9.272;2023-12-07T07:27:18;96038.72;;;4.86;71.49
84358;BME280;74548;47.712;9.272;2023-12-07T07:29:43;96043.00;;;4.87;70.94
84358;BME280;74548;47.712;9.272;2023-12-07T07:32:09;96041.13;;;4.87;70.81
84358;BME280;74548;47.712;9.272;2023-12-07T07:34:35;96036.59;;;4.88;71.03
84358;BME280;74548;47.712;9.272;2023-12-07T07:37:01;96047.88;;;4.90;71.23
84358;BME280;74548;47.712;9.272;2023-12-07T07:39:26;96045.19;;;4.90;70.91
84358;BME280;74548;47.712;9.272;2023-12-07T07:41:51;96042.53;;;4.90;71.48
84358;BME280;74548;47.712;9.272;2023-12-07T07:44:17;96044.13;;;4.91;71.79
84358;BME280;74548;47.712;9.272;2023-12-07T07:46:42;96048.44;;;4.92;71.42
84358;BME280;74548;47.712;9.272;2023-12-07T07:49:07;96050.88;;;4.94;71.57
84358;BME280;74548;47.712;9.272;2023-12-07T07:51:32;96054.34;;;4.94;71.34
84358;BME280;74548;47.712;9.272;2023-12-07T07:53:59;96047.38;;;4.93;71.37
84358;BME280;74548;47.712;9.272;2023-12-07T07:56:25;96050.88;;;4.94;71.21
84358;BME280;74548;47.712;9.272;2023-12-07T07:58:50;96049.00;;;4.94;71.54
84358;BME280;74548;47.712;9.272;2023-12-07T08:01:15;96054.13;;;4.96;71.56
84358;BME280;74548;47.712;9.272;2023-12-07T08:03:41;96044.22;;;4.96;71.95
84358;BME280;74548;47.712;9.272;2023-12-07T08:06:06;96033.75;;;4.95;72.06
84358;BME280;74548;47.712;9.272;2023-12-07T08:08:32;96035.41;;;4.96;71.82
84358;BME280;74548;47.712;9.272;2023-12-07T08:10:57;96032.47;;;4.97;71.44
84358;BME280;74548;47.712;9.272;2023-12-07T08:13:23;96029.78;;;4.97;71.89
84358;BME280;74548;47.712;9.272;2023-12-07T08:15:48;96032.47;;;4.97;71.75
84358;BME280;74548;47.712;9.272;2023-12-07T08:18:14;96026.09;;;4.98;71.92
84358;BME280;74548;47.712;9.272;2023-12-07T08:20:39;96029.56;;;4.99;71.58
84358;BME280;74548;47.712;9.272;2023-12-07T08:23:05;96017.00;;;4.99;71.71
84358;BME280;74548;47.712;9.272;2023-12-07T08:25:30;96014.56;;;4.98;71.80
84358;BME280;74548;47.712;9.272;2023-12-07T08:27:57;96014.31;;;4.99;71.58
84358;BME280;74548;47.712;9.272;2023-12-07T08:30:22;96012.44;;;5.00;71.81
84358;BME280;74548;47.712;9.272;2023-12-07T08:32:48;96003.38;;;5.01;71.74
84358;BME280;74548;47.712;9.272;2023-12-07T08:35:13;95999.88;;;5.00;72.16
84358;BME280;74548;47.712;9.272;2023-12-07T08:37:38;95995.34;;;5.01;72.03
84358;BME280;74548;47.712;9.272;2023-12-07T08:40:05;95990.00;;;5.01;71.33
84358;BME280;74548;47.712;9.272;2023-12-07T08:42:30;95981.97;;;5.01;71.95
84358;BME280;74548;47.712;9.272;2023-12-07T08:44:57;95980.94;;;5.02;72.17
84358;BME280;74548;47.712;9.272;2023-12-07T08:47:22;95974.53;;;5.03;71.56
84358;BME280;74548;47.712;9.272;2023-12-07T08:49:48;95972.91;;;5.02;72.06
84358;BME280;74548;47.712;9.272;2023-12-07T08:52:13;95979.06;;;5.02;71.70
84358;BME280;74548;47.712;9.272;2023-12-07T08:54:38;95984.41;;;5.02;71.81
84358;BME280;74548;47.712;9.272;2023-12-07T08:57:04;95981.47;;;5.04;72.00
84358;BME280;74548;47.712;9.272;2023-12-07T08:59:29;95977.19;;;5.03;71.70
84358;BME280;74548;47.712;9.272;2023-12-07T09:01:55;95971.53;;;4.99;71.27
84358;BME280;74548;47.712;9.272;2023-12-07T09:04:21;95979.88;;;5.03;72.21
84358;BME280;74548;47.712;9.272;2023-12-07T09:06:46;95981.47;;;5.04;71.63
84358;BME280;74548;47.712;9.272;2023-12-07T09:09:11;95992.19;;;5.04;71.87
84358;BME280;74548;47.712;9.272;2023-12-07T09:11:37;96002.88;;;5.04;72.28
84358;BME280;74548;47.712;9.272;2023-12-07T09:14:02;96008.00;;;5.05;71.56
84358;BME280;74548;47.712;9.272;2023-12-07T09:16:27;95996.50;;;5.05;71.80
84358;BME280;74548;47.712;9.272;2023-12-07T09:18:53;95994.63;;;5.05;72.18
84358;BME280;74548;47.712;9.272;2023-12-07T09:21:18;95998.09;;;5.06;71.37
84358;BME280;74548;47.712;9.272;2023-12-07T09:23:44;96002.66;;;5.05;71.26
84358;BME280;74548;47.712;9.272;2023-12-07T09:26:09;96020.31;;;5.06;71.70
84358;BME280;74548;47.712;9.272;2023-12-07T09:28:35;96022.44;;;5.04;71.77
84358;BME280;74548;47.712;9.272;2023-12-07T09:31:00;96036.38;;;5.06;71.98
84358;BME280;74548;47.712;9.272;2023-12-07T09:33:25;96032.88;;;5.06;71.72
84358;BME280;74548;47.712;9.272;2023-12-07T09:35:51;96034.97;;;5.04;71.40
84358;BME280;74548;47.712;9.272;2023-12-07T09:38:16;96024.28;;;5.04;71.38
84358;BME280;74548;47.712;9.272;2023-12-07T09:40:42;96016.03;;;5.05;71.35
84358;BME280;74548;47.712;9.272;2023-12-07T09:43:07;96008.81;;;5.06;71.67
84358;BME280;74548;47.712;9.272;2023-12-07T09:45:33;95995.44;;;5.06;71.27
84358;BME280;74548;47.712;9.272;2023-12-07T09:47:59;95994.38;;;5.07;71.92
84358;BME280;74548;47.712;9.272;2023-12-07T09:50:26;95992.53;;;5.07;71.44
84358;BME280;74548;47.712;9.272;2023-12-07T09:52:54;95991.94;;;5.05;71.26
84358;BME280;74548;47.712;9.272;2023-12-07T09:55:22;95975.91;;;5.05;72.03
84358;BME280;74548;47.712;9.272;2023-12-07T09:57:48;95970.28;;;5.07;71.88
84358;BME280;74548;47.712;9.272;2023-12-07T10:00:14;95967.38;;;5.08;72.02
84358;BME280;74548;47.712;9.272;2023-12-07T10:02:41;95971.13;;;5.07;71.62
84358;BME280;74548;47.712;9.272;2023-12-07T10:05:09;95968.44;;;5.07;71.66
84358;BME280;74548;47.712;9.272;2023-12-07T10:07:42;95960.44;;;5.07;71.70
84358;BME280;74548;47.712;9.272;2023-12-07T10:10:08;95965.78;;;5.07;71.71
84358;BME280;74548;47.712;9.272;2023-12-07T10:12:47;95962.03;;;5.08;71.49
84358;BME280;74548;47.712;9.272;2023-12-07T10:15:14;95954.00;;;5.08;71.35
84358;BME280;74548;47.712;9.272;2023-12-07T10:17:45;95952.13;;;5.09;71.24
84358;BME280;74548;47.712;9.272;2023-12-07T10:20:14;95945.97;;;5.08;72.24
84358;BME280;74548;47.712;9.272;2023-12-07T10:22:40;95941.69;;;5.07;71.93
84358;BME280;74548;47.712;9.272;2023-12-07T10:25:07;95944.13;;;5.09;71.55
84358;BME280;74548;47.712;9.272;2023-12-07T10:27:33;95941.44;;;5.09;71.43
84358;BME280;74548;47.712;9.272;2023-12-07T10:29:58;95938.75;;;5.09;71.81
84358;BME280;74548;47.712;9.272;2023-12-07T10:32:25;95945.72;;;5.10;71.41
84358;BME280;74548;47.712;9.272;2023-12-07T10:34:51;95943.06;;;5.10;71.35
84358;BME280;74548;47.712;9.272;2023-12-07T10:37:16;95945.72;;;5.10;71.38
84358;BME280;74548;47.712;9.272;2023-12-07T10:39:42;95942.25;;;5.09;71.14
84358;BME280;74548;47.712;9.272;2023-12-07T10:42:09;95945.50;;;5.11;71.82
84358;BME280;74548;47.712;9.272;2023-12-07T10:44:41;95938.50;;;5.10;71.06
84358;BME280;74548;47.712;9.272;2023-12-07T10:47:09;95925.06;;;5.05;69.21
84358;BME280;74548;47.712;9.272;2023-12-07T10:49:36;95922.63;;;5.04;67.98
84358;BME280;74548;47.712;9.272;2023-12-07T10:52:07;95910.91;;;5.05;67.44
84358;BME280;74548;47.712;9.272;2023-12-07T10:54:43;95908.22;;;5.05;66.05
84358;BME280;74548;47.712;9.272;2023-12-07T10:57:13;95906.94;;;5.07;66.62
84358;BME280;74548;47.712;9.272;2023-12-07T10:59:42;95905.84;;;5.08;66.01
84358;BME280;74548;47.712;9.272;2023-12-07T11:02:08;95901.56;;;5.07;64.94
84358;BME280;74548;47.712;9.272;2023-12-07T11:04:36;95900.75;;;5.07;64.91
84358;BME280;74548;47.712;9.272;2023-12-07T11:07:09;95893.47;;;5.02;63.74
84358;BME280;74548;47.712;9.272;2023-12-07T11:09:41;95879.28;;;5.02;64.52
84358;BME280;74548;47.712;9.272;2023-12-07T11:12:18;95881.97;;;5.02;63.39
84358;BME280;74548;47.712;9.272;2023-12-07T11:14:46;95875.81;;;5.01;63.90
84358;BME280;74548;47.712;9.272;2023-12-07T11:17:11;95876.84;;;5.00;63.47
84358;BME280;74548;47.712;9.272;2023-12-07T11:22:09;95876.63;;;5.02;62.99
84358;BME280;74548;47.712;9.272;2023-12-07T11:24:35;95879.28;;;5.02;63.64
84358;BME280;74548;47.712;9.272;2023-12-07T11:27:01;95881.97;;;5.02;62.62
84358;BME280;74548;47.712;9.272;2023-12-07T11:29:31;95872.06;;;5.02;63.26
84358;BME280;74548;47.712;9.272;2023-12-07T11:32:06;95871.50;;;5.00;62.27
84358;BME280;74548;47.712;9.272;2023-12-07T11:34:39;95862.03;;;4.93;62.20
84358;BME280;74548;47.712;9.272;2023-12-07T11:37:09;95860.44;;;4.92;62.57
84358;BME280;74548;47.712;9.272;2023-12-07T11:39:36;95866.59;;;4.92;62.38
84358;BME280;74548;47.712;9.272;2023-12-07T11:42:27;95865.25;;;4.95;62.45
84358;BME280;74548;47.712;9.272;2023-12-07T11:44:53;95863.47;;;5.00;63.19
84358;BME280;74548;47.712;9.272;2023-12-07T11:47:20;95863.84;;;5.09;63.06
84358;BME280;74548;47.712;9.272;2023-12-07T11:49:46;95862.59;;;5.17;64.07
84358;BME280;74548;47.712;9.272;2023-12-07T11:52:21;95861.38;;;5.24;63.74
84358;BME280;74548;47.712;9.272;2023-12-07T11:54:47;95841.91;;;5.29;64.37
84358;BME280;74548;47.712;9.272;2023-12-07T11:57:17;95834.53;;;5.36;64.54
84358;BME280;74548;47.712;9.272;2023-12-07T11:59:46;95832.94;;;5.40;65.19
84358;BME280;74548;47.712;9.272;2023-12-07T12:02:13;95833.00;;;5.45;64.65
84358;BME280;74548;47.712;9.272;2023-12-07T12:04:40;95825.03;;;5.50;65.40
84358;BME280;74548;47.712;9.272;2023-12-07T12:07:05;95818.38;;;5.53;65.10
84358;BME280;74548;47.712;9.272;2023-12-07T12:09:31;95815.19;;;5.56;65.76
84358;BME280;74548;47.712;9.272;2023-12-07T12:11:56;95803.97;;;5.59;65.51
84358;BME280;74548;47.712;9.272;2023-12-07T12:14:25;95794.06;;;5.59;65.62
84358;BME280;74548;47.712;9.272;2023-12-07T12:16:51;95791.69;;;5.63;66.38
84358;BME280;74548;47.712;9.272;2023-12-07T12:19:16;95794.13;;;5.65;66.05
84358;BME280;74548;47.712;9.272;2023-12-07T12:21:42;95785.53;;;5.63;66.59
84358;BME280;74548;47.712;9.272;2023-12-07T12:24:11;95782.94;;;5.68;66.72
84358;BME280;74548;47.712;9.272;2023-12-07T12:26:40;95769.28;;;5.69;66.58
84358;BME280;74548;47.712;9.272;2023-12-07T12:29:06;95777.88;;;5.71;66.54
84358;BME280;74548;47.712;9.272;2023-12-07T12:31:32;95772.00;;;5.74;66.29
84358;BME280;74548;47.712;9.272;2023-12-07T12:33:57;95767.16;;;5.71;66.52
84358;BME280;74548;47.712;9.272;2023-12-07T12:36:23;95762.91;;;5.75;66.42
84358;BME280;74548;47.712;9.272;2023-12-07T12:38:52;95761.03;;;5.76;67.24
84358;BME280;74548;47.712;9.272;2023-12-07T12:41:19;95758.91;;;5.78;67.08
84358;BME280;74548;47.712;9.272;2023-12-07T12:43:44;95757.84;;;5.79;66.57
84358;BME280;74548;47.712;9.272;2023-12-07T12:46:10;95747.94;;;5.79;67.43
84358;BME280;74548;47.712;9.272;2023-12-07T12:48:36;95741.78;;;5.79;67.56
84358;BME280;74548;47.712;9.272;2023-12-07T12:51:13;95743.94;;;5.82;67.14
84358;BME280;74548;47.712;9.272;2023-12-07T12:53:46;95742.88;;;5.83;67.50
84358;BME280;74548;47.712;9.272;2023-12-07T12:56:14;95744.75;;;5.82;67.85
84358;BME280;74548;47.712;9.272;2023-12-07T12:58:40;95737.53;;;5.83;67.14
84358;BME280;74548;47.712;9.272;2023-12-07T13:01:10;95720.66;;;5.82;67.30
84358;BME280;74548;47.712;9.272;2023-12-07T13:03:36;95729.25;;;5.85;67.57
84358;BME280;74548;47.712;9.272;2023-12-07T13:06:03;95719.34;;;5.85;67.92
84358;BME280;74548;47.712;9.272;2023-12-07T13:08:29;95719.34;;;5.85;67.68
84358;BME280;74548;47.712;9.272;2023-12-07T13:10:58;95726.28;;;5.86;67.89